createdAt,value
2023-04-15T00:01:04.820Z,100.00
2023-04-15T00:03:32.170Z,100.00
2023-04-15T00:06:00.250Z,100.00
2023-04-15T00:08:27.700Z,100.00
2023-04-15T00:10:54.605Z,100.00
2023-04-15T00:13:21.724Z,100.00
2023-04-15T00:15:48.871Z,100.00
2023-04-15T00:18:16.028Z,100.00
2023-04-15T00:20:42.884Z,100.00
2023-04-15T00:23:09.822Z,100.00
2023-04-15T00:25:36.983Z,100.00
2023-04-15T00:28:04.221Z,100.00
2023-04-15T00:30:31.748Z,100.00
2023-04-15T00:32:58.729Z,100.00
2023-04-15T00:35:25.725Z,100.00
2023-04-15T00:37:52.976Z,100.00
2023-04-15T00:40:22.109Z,100.00
2023-04-15T00:42:48.956Z,100.00
2023-04-15T00:45:16.106Z,100.00
2023-04-15T00:47:44.774Z,100.00
2023-04-15T00:50:13.067Z,100.00
2023-04-15T00:52:41.180Z,100.00
2023-04-15T00:55:09.585Z,100.00
2023-04-15T00:57:37.446Z,100.00
2023-04-15T01:00:08.239Z,100.00
2023-04-15T01:02:37.068Z,100.00
2023-04-15T01:05:04.627Z,100.00
2023-04-15T01:07:32.409Z,100.00
2023-04-15T01:09:59.611Z,100.00
2023-04-15T01:12:28.258Z,100.00
2023-04-15T01:14:56.476Z,100.00
2023-04-15T01:17:25.466Z,100.00
2023-04-15T01:19:53.412Z,100.00
2023-04-15T01:22:20.424Z,100.00
2023-04-15T01:25:02.637Z,100.00
2023-04-15T01:27:30.680Z,100.00
2023-04-15T01:29:57.786Z,100.00
2023-04-15T01:32:25.419Z,100.00
2023-04-15T01:34:52.348Z,100.00
2023-04-15T01:37:19.287Z,100.00
2023-04-15T01:39:46.759Z,100.00
2023-04-15T01:42:13.625Z,100.00
2023-04-15T01:44:40.487Z,100.00
2023-04-15T01:47:07.494Z,100.00
2023-04-15T01:49:35.030Z,100.00
2023-04-15T01:52:01.918Z,100.00
2023-04-15T01:54:28.879Z,100.00
2023-04-15T01:56:57.079Z,100.00
2023-04-15T01:59:24.016Z,100.00
2023-04-15T02:01:51.180Z,100.00
2023-04-15T02:04:18.597Z,100.00
2023-04-15T02:06:46.341Z,100.00
2023-04-15T02:09:13.672Z,100.00
2023-04-15T02:11:40.582Z,100.00
2023-04-15T02:14:07.461Z,100.00
2023-04-15T02:16:34.956Z,100.00
2023-04-15T02:19:02.420Z,100.00
2023-04-15T02:21:30.528Z,100.00
2023-04-15T02:23:57.664Z,100.00
2023-04-15T02:26:25.815Z,100.00
2023-04-15T02:28:52.738Z,100.00
2023-04-15T02:31:19.822Z,100.00
2023-04-15T02:33:47.096Z,100.00
2023-04-15T02:36:13.960Z,100.00
2023-04-15T02:38:42.799Z,100.00
2023-04-15T02:41:12.971Z,100.00
2023-04-15T02:43:40.234Z,100.00
2023-04-15T02:46:07.380Z,100.00
2023-04-15T02:48:34.517Z,100.00
2023-04-15T02:51:23.082Z,100.00
2023-04-15T02:53:50.897Z,100.00
2023-04-15T02:56:19.579Z,100.00
2023-04-15T02:58:46.801Z,100.00
2023-04-15T03:01:14.235Z,100.00
2023-04-15T03:03:41.642Z,100.00
2023-04-15T03:06:09.269Z,100.00
2023-04-15T03:08:36.640Z,100.00
2023-04-15T03:11:04.336Z,100.00
2023-04-15T03:13:31.813Z,100.00
2023-04-15T03:15:58.702Z,100.00
2023-04-15T03:18:25.876Z,100.00
2023-04-15T03:20:52.889Z,100.00
2023-04-15T03:23:20.019Z,100.00
2023-04-15T03:25:46.882Z,100.00
2023-04-15T03:28:13.924Z,100.00
2023-04-15T03:30:41.172Z,100.00
2023-04-15T03:33:08.818Z,100.00
2023-04-15T03:35:35.764Z,100.00
2023-04-15T03:38:02.594Z,100.00
2023-04-15T03:40:29.550Z,100.00
2023-04-15T03:42:56.588Z,100.00
2023-04-15T03:45:23.855Z,100.00
2023-04-15T03:47:50.840Z,100.00
2023-04-15T03:50:18.184Z,100.00
2023-04-15T03:52:45.950Z,100.00
2023-04-15T03:55:12.936Z,100.00
2023-04-15T03:57:39.979Z,100.00
2023-04-15T04:00:09.554Z,100.00
2023-04-15T04:02:37.088Z,100.00
2023-04-15T04:05:04.775Z,100.00
2023-04-15T04:07:32.603Z,100.00
2023-04-15T04:09:59.450Z,100.00
2023-04-15T04:12:26.533Z,100.00
2023-04-15T04:14:53.712Z,100.00
2023-04-15T04:17:20.804Z,100.00
2023-04-15T04:19:47.947Z,100.00
2023-04-15T04:22:14.828Z,100.00
2023-04-15T04:24:41.663Z,100.00
2023-04-15T04:27:08.554Z,100.00
2023-04-15T04:29:35.426Z,100.00
2023-04-15T04:32:02.312Z,100.00
2023-04-15T04:34:29.224Z,100.00
2023-04-15T04:36:56.233Z,100.00
2023-04-15T04:39:23.161Z,100.00
2023-04-15T04:41:52.495Z,100.00
2023-04-15T04:44:19.421Z,100.00
2023-04-15T04:46:46.649Z,100.00
2023-04-15T04:49:13.519Z,100.00
2023-04-15T04:51:40.500Z,100.00
2023-04-15T04:54:07.868Z,100.00
2023-04-15T04:56:34.991Z,100.00
2023-04-15T04:59:02.405Z,100.00
2023-04-15T05:01:29.546Z,100.00
2023-04-15T05:03:56.835Z,100.00
2023-04-15T05:06:23.860Z,100.00
2023-04-15T05:08:51.252Z,100.00
2023-04-15T05:11:18.137Z,100.00
2023-04-15T05:13:45.171Z,100.00
2023-04-15T05:16:12.594Z,100.00
2023-04-15T05:18:39.479Z,100.00
2023-04-15T05:21:07.062Z,100.00
2023-04-15T05:23:34.348Z,100.00
2023-04-15T05:26:01.375Z,100.00
2023-04-15T05:28:28.237Z,100.00
2023-04-15T05:30:55.704Z,100.00
2023-04-15T05:33:23.561Z,100.00
2023-04-15T05:35:50.760Z,100.00
2023-04-15T05:38:17.625Z,100.00
2023-04-15T05:40:44.544Z,100.00
2023-04-15T05:43:11.888Z,100.00
2023-04-15T05:45:38.752Z,100.00
2023-04-15T05:48:05.889Z,100.00
2023-04-15T05:50:32.937Z,100.00
2023-04-15T05:52:59.886Z,100.00
2023-04-15T05:55:27.691Z,100.00
2023-04-15T05:57:54.560Z,100.00
2023-04-15T06:00:21.895Z,100.00
2023-04-15T06:02:48.874Z,100.00
2023-04-15T06:05:15.963Z,100.00
2023-04-15T06:07:45.515Z,100.00
2023-04-15T06:10:13.906Z,100.00
2023-04-15T06:12:41.086Z,100.00
2023-04-15T06:15:10.794Z,100.00
2023-04-15T06:17:37.749Z,100.00
2023-04-15T06:20:05.295Z,100.00
2023-04-15T06:22:32.189Z,100.00
2023-04-15T06:24:59.077Z,100.00
2023-04-15T06:27:26.113Z,100.00
2023-04-15T06:29:53.016Z,100.00
2023-04-15T06:32:19.921Z,100.00
2023-04-15T06:34:47.228Z,100.00
2023-04-15T06:37:16.575Z,100.00
2023-04-15T06:39:45.026Z,100.00
2023-04-15T06:42:12.397Z,100.00
2023-04-15T06:44:40.114Z,100.00
2023-04-15T06:47:07.102Z,100.00
2023-04-15T06:49:34.181Z,100.00
2023-04-15T06:52:01.866Z,100.00
2023-04-15T06:54:28.722Z,100.00
2023-04-15T06:56:55.972Z,100.00
2023-04-15T06:59:22.839Z,100.00
2023-04-15T07:01:50.023Z,100.00
2023-04-15T07:04:17.158Z,100.00
2023-04-15T07:06:44.788Z,100.00
2023-04-15T07:09:12.086Z,100.00
2023-04-15T07:11:38.928Z,100.00
2023-04-15T07:14:06.193Z,100.00
2023-04-15T07:16:33.237Z,100.00
2023-04-15T07:19:00.287Z,100.00
2023-04-15T07:21:27.945Z,100.00
2023-04-15T07:23:54.875Z,100.00
2023-04-15T07:26:21.974Z,100.00
2023-04-15T07:28:49.756Z,100.00
2023-04-15T07:31:17.912Z,100.00
2023-04-15T07:33:45.289Z,100.00
2023-04-15T07:36:12.154Z,100.00
2023-04-15T07:38:39.942Z,100.00
2023-04-15T07:41:06.939Z,100.00
2023-04-15T07:43:34.187Z,100.00
2023-04-15T07:46:01.080Z,100.00
2023-04-15T07:48:27.943Z,100.00
2023-04-15T07:50:54.789Z,100.00
2023-04-15T07:53:21.695Z,100.00
2023-04-15T07:55:48.526Z,100.00
2023-04-15T07:58:15.911Z,100.00
2023-04-15T08:00:42.790Z,100.00
2023-04-15T08:03:09.889Z,100.00
2023-04-15T08:05:36.980Z,100.00
2023-04-15T08:08:03.921Z,100.00
2023-04-15T08:10:31.021Z,100.00
2023-04-15T08:12:57.929Z,100.00
2023-04-15T08:15:25.843Z,100.00
2023-04-15T08:17:52.927Z,100.00
2023-04-15T08:20:20.877Z,100.00
2023-04-15T08:22:52.148Z,100.00
2023-04-15T08:25:20.332Z,100.00
2023-04-15T08:27:47.566Z,100.00
2023-04-15T08:30:14.833Z,100.00
2023-04-15T08:32:46.530Z,100.00
2023-04-15T08:35:14.352Z,100.00
2023-04-15T08:37:41.520Z,99.67
2023-04-15T08:40:10.143Z,98.81
2023-04-15T08:42:49.590Z,97.02
2023-04-15T08:45:18.527Z,95.03
2023-04-15T08:47:47.148Z,93.47
2023-04-15T08:50:15.673Z,92.19
2023-04-15T08:52:42.846Z,90.19
2023-04-15T08:55:11.850Z,90.52
2023-04-15T08:57:40.060Z,90.63
2023-04-15T09:00:10.021Z,90.21
2023-04-15T09:02:37.419Z,89.03
2023-04-15T09:05:06.782Z,89.77
2023-04-15T09:07:36.093Z,87.57
2023-04-15T09:10:05.012Z,87.15
2023-04-15T09:12:37.802Z,86.46
2023-04-15T09:15:05.280Z,85.45
2023-04-15T09:17:34.877Z,86.77
2023-04-15T09:20:14.867Z,88.13
2023-04-15T09:22:45.171Z,89.91
2023-04-15T09:25:32.162Z,89.37
2023-04-15T09:28:02.341Z,90.08
2023-04-15T09:30:30.015Z,88.85
2023-04-15T09:33:00.045Z,85.26
2023-04-15T09:35:30.344Z,85.02
2023-04-15T09:38:10.248Z,85.01
2023-04-15T09:40:43.490Z,83.90
2023-04-15T09:43:13.229Z,82.87
2023-04-15T09:45:49.172Z,82.38
2023-04-15T09:48:27.036Z,81.77
2023-04-15T09:50:54.616Z,82.02
2023-04-15T09:53:23.866Z,80.94
2023-04-15T09:55:58.832Z,80.10
2023-04-15T09:58:31.805Z,78.25
2023-04-15T10:01:02.097Z,78.73
2023-04-15T10:03:36.187Z,79.33
2023-04-15T10:06:06.482Z,79.18
2023-04-15T10:08:35.268Z,79.08
2023-04-15T10:11:02.941Z,80.01
2023-04-15T10:13:37.753Z,80.07
2023-04-15T10:16:12.551Z,78.30
2023-04-15T10:18:45.355Z,78.36
2023-04-15T10:21:18.846Z,79.49
2023-04-15T10:23:47.043Z,78.76
2023-04-15T10:26:17.437Z,78.76
2023-04-15T10:28:47.396Z,79.35
2023-04-15T10:31:15.378Z,77.78
2023-04-15T10:33:45.092Z,78.85
2023-04-15T10:36:13.429Z,78.24
2023-04-15T10:38:45.977Z,77.60
2023-04-15T10:41:19.478Z,76.47
2023-04-15T10:44:05.430Z,76.20
2023-04-15T10:46:46.989Z,77.54
2023-04-15T10:49:25.422Z,78.30
2023-04-15T10:51:58.728Z,78.06
2023-04-15T10:54:25.518Z,76.51
2023-04-15T10:57:08.966Z,77.20
2023-04-15T11:00:01.251Z,75.77
2023-04-15T11:02:55.022Z,76.54
2023-04-15T11:05:44.190Z,76.37
2023-04-15T11:08:12.456Z,74.01
2023-04-15T11:10:39.290Z,73.41
2023-04-15T11:13:12.322Z,72.83
2023-04-15T11:15:47.518Z,72.94
2023-04-15T11:18:24.037Z,72.30
2023-04-15T11:20:59.797Z,73.61
2023-04-15T11:23:49.528Z,72.23
2023-04-15T11:26:16.476Z,70.86
2023-04-15T11:28:45.734Z,71.68
2023-04-15T11:31:18.638Z,72.79
2023-04-15T11:34:02.772Z,72.70
2023-04-15T11:36:32.364Z,70.44
2023-04-15T11:39:00.531Z,67.68
2023-04-15T11:41:27.707Z,67.62
2023-04-15T11:43:54.852Z,68.91
2023-04-15T11:46:23.229Z,70.10
2023-04-15T11:48:50.582Z,70.75
2023-04-15T11:51:17.738Z,70.46
2023-04-15T11:53:50.777Z,70.23
2023-04-15T11:56:28.703Z,70.18
2023-04-15T11:59:01.503Z,71.71
2023-04-15T12:01:46.859Z,72.55
2023-04-15T12:04:15.912Z,72.88
2023-04-15T12:06:43.256Z,72.82
2023-04-15T12:09:13.255Z,71.16
2023-04-15T12:11:50.312Z,71.51
2023-04-15T12:14:31.399Z,71.71
2023-04-15T12:17:07.422Z,70.73
2023-04-15T12:19:43.226Z,71.68
2023-04-15T12:22:14.129Z,69.87
2023-04-15T12:24:48.505Z,70.03
2023-04-15T12:27:17.204Z,68.49
2023-04-15T12:29:44.274Z,68.95
2023-04-15T12:32:16.080Z,68.16
2023-04-15T12:34:54.671Z,68.40
2023-04-15T12:37:22.243Z,70.30
2023-04-15T12:39:50.728Z,70.21
2023-04-15T12:42:18.873Z,67.90
2023-04-15T12:44:46.638Z,68.60
2023-04-15T12:47:14.493Z,66.87
2023-04-15T12:49:41.723Z,66.59
2023-04-15T12:52:08.691Z,66.95
2023-04-15T12:54:36.606Z,66.72
2023-04-15T12:57:06.799Z,66.20
2023-04-15T12:59:35.512Z,64.79
2023-04-15T13:02:04.647Z,64.13
2023-04-15T13:04:32.211Z,63.75
2023-04-15T13:06:59.293Z,63.49
2023-04-15T13:09:26.262Z,61.39
2023-04-15T13:11:53.423Z,62.83
2023-04-15T13:14:20.449Z,63.54
2023-04-15T13:16:47.448Z,61.76
2023-04-15T13:19:15.060Z,62.63
2023-04-15T13:21:41.985Z,63.04
2023-04-15T13:24:09.921Z,61.97
2023-04-15T13:26:36.933Z,60.64
2023-04-15T13:29:03.826Z,61.05
2023-04-15T13:31:31.372Z,60.94
2023-04-15T13:33:58.260Z,61.35
2023-04-15T13:36:25.334Z,61.38
2023-04-15T13:38:52.353Z,60.40
2023-04-15T13:41:20.294Z,61.05
2023-04-15T13:43:47.494Z,61.34
2023-04-15T13:46:14.948Z,62.11
2023-04-15T13:48:42.108Z,62.57
2023-04-15T13:51:09.110Z,61.39
2023-04-15T13:53:39.210Z,61.53
2023-04-15T13:56:10.730Z,61.65
2023-04-15T13:58:38.641Z,61.55
2023-04-15T14:01:07.246Z,62.57
2023-04-15T14:03:38.653Z,62.93
2023-04-15T14:06:08.528Z,62.99
2023-04-15T14:08:35.407Z,62.85
2023-04-15T14:11:02.435Z,61.96
2023-04-15T14:13:29.620Z,61.41
2023-04-15T14:15:57.566Z,61.86
2023-04-15T14:18:24.542Z,61.20
2023-04-15T14:20:51.982Z,61.40
2023-04-15T14:23:18.902Z,61.43
2023-04-15T14:25:47.919Z,61.34
2023-04-15T14:28:15.527Z,61.73
2023-04-15T14:30:42.769Z,60.69
2023-04-15T14:33:09.869Z,61.13
2023-04-15T14:35:36.844Z,60.67
2023-04-15T14:38:04.217Z,60.55
2023-04-15T14:40:31.225Z,60.27
2023-04-15T14:42:58.078Z,59.78
2023-04-15T14:45:25.133Z,60.12
2023-04-15T14:47:53.563Z,60.11
2023-04-15T14:50:20.593Z,60.18
2023-04-15T14:52:47.590Z,60.50
2023-04-15T14:55:14.870Z,60.42
2023-04-15T14:57:43.255Z,60.86
2023-04-15T15:00:14.534Z,59.55
2023-04-15T15:02:43.641Z,59.93
2023-04-15T15:05:12.338Z,60.18
2023-04-15T15:07:41.205Z,59.92
2023-04-15T15:10:08.730Z,60.33
2023-04-15T15:12:36.162Z,58.75
2023-04-15T15:15:15.711Z,57.52
2023-04-15T15:17:52.446Z,57.54
2023-04-15T15:20:19.685Z,58.08
2023-04-15T15:22:46.650Z,56.51
2023-04-15T15:25:13.576Z,56.77
2023-04-15T15:27:40.637Z,56.96
2023-04-15T15:30:08.287Z,56.06
2023-04-15T15:32:35.760Z,55.36
2023-04-15T15:35:02.816Z,55.66
2023-04-15T15:37:31.727Z,56.79
2023-04-15T15:39:58.897Z,56.55
2023-04-15T15:42:25.786Z,56.40
2023-04-15T15:44:53.411Z,55.50
2023-04-15T15:47:22.746Z,56.14
2023-04-15T15:49:49.958Z,56.20
2023-04-15T15:52:16.837Z,56.27
2023-04-15T15:54:44.089Z,54.77
2023-04-15T15:57:11.536Z,55.12
2023-04-15T15:59:41.434Z,54.43
2023-04-15T16:02:12.041Z,55.13
2023-04-15T16:04:40.114Z,55.60
2023-04-15T16:07:07.206Z,55.49
2023-04-15T16:09:34.123Z,55.80
2023-04-15T16:12:02.400Z,56.27
2023-04-15T16:14:29.319Z,56.45
2023-04-15T16:16:56.792Z,56.90
2023-04-15T16:19:23.842Z,56.90
2023-04-15T16:21:51.370Z,57.04
2023-04-15T16:24:18.513Z,57.60
2023-04-15T16:26:45.614Z,57.57
2023-04-15T16:29:12.583Z,58.23
2023-04-15T16:31:40.309Z,58.73
2023-04-15T16:34:07.322Z,58.42
2023-04-15T16:36:35.891Z,58.94
2023-04-15T16:39:02.983Z,59.32
2023-04-15T16:41:30.106Z,59.34
2023-04-15T16:43:58.898Z,59.68
2023-04-15T16:46:25.900Z,60.49
2023-04-15T16:48:53.153Z,60.79
2023-04-15T16:51:20.019Z,61.31
2023-04-15T16:53:46.973Z,61.74
2023-04-15T16:56:13.919Z,61.77
2023-04-15T16:58:41.013Z,60.90
2023-04-15T17:01:08.678Z,60.89
2023-04-15T17:03:37.116Z,60.75
2023-04-15T17:06:04.465Z,61.14
2023-04-15T17:08:31.333Z,61.59
2023-04-15T17:10:58.812Z,61.56
2023-04-15T17:13:26.850Z,61.88
2023-04-15T17:15:55.768Z,62.18
2023-04-15T17:18:22.838Z,62.73
2023-04-15T17:20:49.750Z,62.49
2023-04-15T17:23:16.695Z,62.68
2023-04-15T17:25:43.682Z,62.69
2023-04-15T17:28:10.757Z,63.00
2023-04-15T17:30:37.809Z,61.81
2023-04-15T17:33:55.287Z,62.04
2023-04-15T17:35:51.691Z,61.97
2023-04-15T17:38:18.760Z,61.92
2023-04-15T17:40:45.687Z,61.59
2023-04-15T17:43:12.678Z,61.01
2023-04-15T17:45:39.616Z,60.65
2023-04-15T17:48:06.655Z,60.74
2023-04-15T17:50:33.643Z,60.85
2023-04-15T17:53:00.744Z,61.28
2023-04-15T17:55:27.624Z,62.16
2023-04-15T17:57:54.703Z,62.98
2023-04-15T18:00:21.751Z,62.94
2023-04-15T18:02:49.057Z,63.25
2023-04-15T18:05:18.997Z,63.46
2023-04-15T18:07:46.301Z,63.74
2023-04-15T18:10:13.202Z,64.34
2023-04-15T18:12:40.103Z,64.15
2023-04-15T18:15:09.681Z,64.87
2023-04-15T18:17:36.800Z,65.21
2023-04-15T18:20:04.512Z,64.99
2023-04-15T18:22:31.386Z,64.80
2023-04-15T18:25:04.263Z,64.91
2023-04-15T18:27:32.679Z,64.93
2023-04-15T18:30:00.164Z,65.81
2023-04-15T18:32:31.814Z,65.97
2023-04-15T18:34:59.084Z,66.95
2023-04-15T18:37:27.200Z,67.89
2023-04-15T18:39:54.473Z,67.94
2023-04-15T18:42:22.637Z,68.72
2023-04-15T18:44:50.086Z,69.59
2023-04-15T18:47:17.874Z,69.75
2023-04-15T18:49:44.978Z,71.12
2023-04-15T18:52:12.553Z,71.88
2023-04-15T18:54:39.547Z,72.72
2023-04-15T18:57:07.099Z,73.18
2023-04-15T18:59:34.337Z,73.83
2023-04-15T19:02:02.444Z,73.84
2023-04-15T19:04:29.631Z,74.72
2023-04-15T19:06:56.887Z,75.09
2023-04-15T19:09:24.129Z,75.38
2023-04-15T19:11:51.135Z,76.90
2023-04-15T19:14:18.912Z,76.64
2023-04-15T19:16:45.857Z,77.52
2023-04-15T19:19:14.916Z,77.94
2023-04-15T19:21:41.962Z,78.95
2023-04-15T19:24:09.051Z,79.16
2023-04-15T19:26:37.187Z,78.89
2023-04-15T19:29:04.180Z,78.99
2023-04-15T19:31:31.268Z,79.07
2023-04-15T19:33:58.132Z,80.34
2023-04-15T19:36:25.057Z,80.59
2023-04-15T19:38:52.377Z,80.56
2023-04-15T19:41:19.565Z,80.93
2023-04-15T19:43:46.440Z,80.98
2023-04-15T19:46:13.711Z,81.84
2023-04-15T19:48:40.773Z,81.75
2023-04-15T19:51:07.716Z,82.63
2023-04-15T19:53:35.056Z,82.02
2023-04-15T19:56:02.200Z,82.68
2023-04-15T19:58:29.340Z,83.07
2023-04-15T20:00:57.109Z,82.88
2023-04-15T20:03:24.302Z,83.68
2023-04-15T20:05:51.388Z,84.45
2023-04-15T20:08:18.580Z,84.60
2023-04-15T20:10:45.634Z,85.13
2023-04-15T20:13:13.312Z,85.17
2023-04-15T20:15:40.212Z,85.17
2023-04-15T20:18:07.249Z,84.60
2023-04-15T20:20:35.606Z,83.94
2023-04-15T20:23:02.847Z,84.06
2023-04-15T20:25:29.814Z,84.26
2023-04-15T20:28:00.415Z,84.65
2023-04-15T20:30:29.639Z,84.35
2023-04-15T20:32:56.713Z,84.32
2023-04-15T20:35:25.428Z,84.76
2023-04-15T20:37:52.435Z,85.20
2023-04-15T20:40:19.311Z,84.94
2023-04-15T20:42:46.291Z,84.80
2023-04-15T20:45:13.259Z,85.42
2023-04-15T20:47:40.183Z,85.87
2023-04-15T20:50:08.427Z,85.62
2023-04-15T20:52:35.301Z,86.17
2023-04-15T20:55:02.183Z,86.07
2023-04-15T20:57:30.406Z,86.24
2023-04-15T20:59:57.653Z,85.94
2023-04-15T21:02:25.066Z,86.20
2023-04-15T21:04:52.117Z,85.88
2023-04-15T21:07:19.008Z,86.32
2023-04-15T21:09:47.118Z,85.94
2023-04-15T21:12:14.324Z,86.61
2023-04-15T21:14:41.291Z,86.93
2023-04-15T21:17:11.194Z,87.02
2023-04-15T21:19:38.859Z,87.30
2023-04-15T21:22:05.883Z,87.24
2023-04-15T21:24:32.772Z,86.69
2023-04-15T21:26:59.620Z,87.14
2023-04-15T21:29:26.621Z,86.99
2023-04-15T21:31:53.582Z,86.94
2023-04-15T21:34:20.520Z,87.25
2023-04-15T21:36:47.459Z,87.99
2023-04-15T21:39:14.387Z,87.91
2023-04-15T21:41:41.332Z,87.36
2023-04-15T21:44:08.625Z,88.24
2023-04-15T21:46:35.888Z,87.38
2023-04-15T21:49:03.788Z,87.26
2023-04-15T21:51:31.718Z,87.43
2023-04-15T21:53:59.460Z,87.83
2023-04-15T21:56:26.702Z,88.03
2023-04-15T21:58:59.793Z,88.27
2023-04-15T22:01:27.155Z,88.17
2023-04-15T22:03:54.325Z,88.08
2023-04-15T22:06:21.691Z,88.51
2023-04-15T22:08:57.083Z,88.62
2023-04-15T22:11:28.806Z,88.35
2023-04-15T22:13:57.503Z,88.61
2023-04-15T22:16:28.903Z,88.69
2023-04-15T22:18:56.262Z,88.50
2023-04-15T22:21:26.972Z,88.70
2023-04-15T22:24:33.776Z,88.55
2023-04-15T22:26:41.372Z,88.95
2023-04-15T22:29:08.592Z,88.97
2023-04-15T22:31:35.829Z,88.81
2023-04-15T22:34:02.717Z,88.86
2023-04-15T22:36:31.961Z,89.29
2023-04-15T22:38:58.899Z,89.15
2023-04-15T22:41:25.762Z,89.26
2023-04-15T22:43:53.000Z,89.60
2023-04-15T22:46:20.060Z,88.96
2023-04-15T22:48:47.119Z,89.32
2023-04-15T22:51:22.265Z,89.21
2023-04-15T22:53:50.655Z,89.01
2023-04-15T22:56:22.844Z,88.63
2023-04-15T22:58:50.130Z,88.95
2023-04-15T23:01:18.072Z,88.97
2023-04-15T23:03:57.001Z,88.91
2023-04-15T23:06:30.390Z,89.40
2023-04-15T23:08:57.442Z,89.23
2023-04-15T23:11:24.378Z,89.24
2023-04-15T23:13:51.323Z,89.33
2023-04-15T23:16:18.290Z,88.87
2023-04-15T23:18:45.188Z,88.83
2023-04-15T23:21:12.134Z,88.85
2023-04-15T23:23:39.080Z,88.61
2023-04-15T23:26:06.469Z,88.86
2023-04-15T23:28:33.585Z,88.68
2023-04-15T23:31:00.763Z,89.01
2023-04-15T23:33:27.960Z,89.35
2023-04-15T23:35:54.915Z,89.13
2023-04-15T23:38:21.852Z,88.84
2023-04-15T23:40:48.777Z,89.13
2023-04-15T23:43:15.654Z,88.88
2023-04-15T23:45:42.663Z,89.03
2023-04-15T23:48:09.591Z,89.28
2023-04-15T23:50:36.484Z,89.04
2023-04-15T23:53:03.421Z,89.25
2023-04-15T23:55:31.445Z,89.27
2023-04-15T23:57:58.382Z,89.29
